createdAt,value
2022-10-18T00:00:27.094Z,267
2022-10-18T00:00:59.439Z,267
2022-10-18T00:01:30.639Z,267
2022-10-18T00:02:03.690Z,267
2022-10-18T00:02:34.088Z,267
2022-10-18T00:02:50.428Z,267
2022-10-18T00:03:22.759Z,267
2022-10-18T00:03:40.423Z,267
2022-10-18T00:04:11.541Z,267
2022-10-18T00:04:34.838Z,267
2022-10-18T00:04:58.745Z,267
2022-10-18T00:05:31.702Z,267
2022-10-18T00:06:03.631Z,267
2022-10-18T00:06:33.936Z,267
2022-10-18T00:06:50.615Z,267
2022-10-18T00:07:29.914Z,267
2022-10-18T00:07:55.639Z,267
2022-10-18T00:08:26.695Z,267
2022-10-18T00:08:58.800Z,267
2022-10-18T00:09:30.646Z,267
2022-10-18T00:10:02.806Z,267
2022-10-18T00:10:33.911Z,267
2022-10-18T00:10:51.694Z,267
2022-10-18T00:11:22.800Z,267
2022-10-18T00:11:39.858Z,267
2022-10-18T00:12:11.634Z,267
2022-10-18T00:12:34.434Z,267
2022-10-18T00:12:59.937Z,267
2022-10-18T00:13:30.818Z,267
2022-10-18T00:14:02.812Z,267
2022-10-18T00:14:34.101Z,267
2022-10-18T00:14:50.468Z,267
2022-10-18T00:15:23.746Z,267
2022-10-18T00:15:40.563Z,267
2022-10-18T00:16:26.387Z,267
2022-10-18T00:16:59.459Z,267
2022-10-18T00:17:31.074Z,267
2022-10-18T00:18:03.319Z,267
2022-10-18T00:18:34.133Z,267
2022-10-18T00:18:50.416Z,267
2022-10-18T00:19:25.967Z,267
2022-10-18T00:19:40.694Z,267
2022-10-18T00:20:10.895Z,267
2022-10-18T00:20:33.950Z,267
2022-10-18T00:20:58.892Z,267
2022-10-18T00:21:33.981Z,267
2022-10-18T00:22:02.773Z,267
2022-10-18T00:22:35.098Z,267
2022-10-18T00:23:07.353Z,267
2022-10-18T00:23:34.103Z,267
2022-10-18T00:23:54.614Z,267
2022-10-18T00:24:26.762Z,267
2022-10-18T00:24:58.808Z,267
2022-10-18T00:25:30.770Z,267
2022-10-18T00:26:02.608Z,267
2022-10-18T00:26:38.104Z,267
2022-10-18T00:27:07.051Z,267
2022-10-18T00:27:33.996Z,267
2022-10-18T00:27:54.617Z,267
2022-10-18T00:28:27.382Z,267
2022-10-18T00:28:58.651Z,267
2022-10-18T00:29:31.561Z,267
2022-10-18T00:30:03.135Z,267
2022-10-18T00:30:33.972Z,267
2022-10-18T00:30:51.385Z,267
2022-10-18T00:31:23.434Z,267
2022-10-18T00:31:40.642Z,267
2022-10-18T00:32:11.487Z,267
2022-10-18T00:32:34.326Z,267
2022-10-18T00:32:58.773Z,267
2022-10-18T00:33:31.445Z,267
2022-10-18T00:34:02.615Z,267
2022-10-18T00:34:33.961Z,267
2022-10-18T00:34:51.112Z,267
2022-10-18T00:35:22.939Z,267
2022-10-18T00:35:40.754Z,267
2022-10-18T00:36:11.476Z,267
2022-10-18T00:36:34.066Z,267
2022-10-18T00:36:58.790Z,267
2022-10-18T00:37:31.259Z,267
2022-10-18T00:38:02.621Z,267
2022-10-18T00:38:35.362Z,267
2022-10-18T00:39:06.756Z,267
2022-10-18T00:39:33.948Z,267
2022-10-18T00:39:54.605Z,267
2022-10-18T00:40:28.648Z,267
2022-10-18T00:40:59.614Z,267
2022-10-18T00:41:30.769Z,267
2022-10-18T00:42:03.337Z,267
2022-10-18T00:42:34.374Z,267
2022-10-18T00:42:50.574Z,267
2022-10-18T00:43:22.759Z,267
2022-10-18T00:43:39.886Z,267
2022-10-18T00:44:11.353Z,267
2022-10-18T00:44:33.906Z,267
2022-10-18T00:44:58.637Z,267
2022-10-18T00:45:32.085Z,267
2022-10-18T00:46:02.782Z,267
2022-10-18T00:46:34.626Z,267
2022-10-18T00:47:06.673Z,267
2022-10-18T00:47:34.081Z,267
2022-10-18T00:47:55.506Z,267
2022-10-18T00:48:26.802Z,267
2022-10-18T00:48:58.604Z,267
2022-10-18T00:49:30.616Z,267
2022-10-18T00:50:02.889Z,267
2022-10-18T00:50:34.054Z,267
2022-10-18T00:50:50.584Z,267
2022-10-18T00:51:23.472Z,267
2022-10-18T00:51:40.680Z,267
2022-10-18T00:52:10.779Z,267
2022-10-18T00:52:34.361Z,267
2022-10-18T00:52:59.411Z,267
2022-10-18T00:53:30.706Z,267
2022-10-18T00:54:02.581Z,267
2022-10-18T00:54:33.982Z,267
2022-10-18T00:54:50.688Z,267
2022-10-18T00:55:23.522Z,267
2022-10-18T00:55:40.524Z,267
2022-10-18T00:56:10.639Z,267
2022-10-18T00:56:34.087Z,267
2022-10-18T00:56:59.734Z,267
2022-10-18T00:57:30.717Z,267
2022-10-18T00:58:03.483Z,267
2022-10-18T00:58:34.124Z,267
2022-10-18T00:58:50.700Z,267
2022-10-18T00:59:22.840Z,267
2022-10-18T00:59:39.951Z,267
2022-10-18T01:00:11.610Z,267
2022-10-18T01:00:34.067Z,267
2022-10-18T01:00:58.868Z,267
2022-10-18T01:01:30.882Z,267
2022-10-18T01:02:02.818Z,267
2022-10-18T01:02:34.186Z,267
2022-10-18T01:02:50.533Z,267
2022-10-18T01:03:23.319Z,267
2022-10-18T01:03:40.515Z,267
2022-10-18T01:04:10.599Z,267
2022-10-18T01:04:33.979Z,267
2022-10-18T01:04:59.484Z,267
2022-10-18T01:05:30.949Z,267
2022-10-18T01:06:03.399Z,267
2022-10-18T01:06:34.101Z,267
2022-10-18T01:06:50.593Z,267
2022-10-18T01:07:22.610Z,267
2022-10-18T01:07:39.935Z,267
2022-10-18T01:08:11.326Z,267
2022-10-18T01:08:34.038Z,267
2022-10-18T01:08:58.689Z,267
2022-10-18T01:09:31.538Z,267
2022-10-18T01:10:02.890Z,267
2022-10-18T01:10:33.969Z,267
2022-10-18T01:10:51.393Z,267
2022-10-18T01:11:22.644Z,267
2022-10-18T01:11:39.694Z,267
2022-10-18T01:12:10.747Z,267
2022-10-18T01:12:34.157Z,267
2022-10-18T01:12:59.324Z,267
2022-10-18T01:13:30.673Z,267
2022-10-18T01:14:03.572Z,267
2022-10-18T01:14:34.057Z,267
2022-10-18T01:14:50.733Z,267
2022-10-18T01:15:23.002Z,267
2022-10-18T01:15:40.760Z,267
2022-10-18T01:16:11.370Z,267
2022-10-18T01:16:34.120Z,267
2022-10-18T01:16:58.822Z,267
2022-10-18T01:17:31.220Z,267
2022-10-18T01:18:02.687Z,267
2022-10-18T01:18:34.123Z,267
2022-10-18T01:18:50.559Z,267
2022-10-18T01:19:23.360Z,267
2022-10-18T01:19:40.424Z,267
2022-10-18T01:20:10.785Z,267
2022-10-18T01:20:33.943Z,267
2022-10-18T01:20:58.736Z,267
2022-10-18T01:21:31.376Z,267
2022-10-18T01:22:02.813Z,267
2022-10-18T01:22:34.142Z,267
2022-10-18T01:22:51.357Z,267
2022-10-18T01:23:22.701Z,267
2022-10-18T01:23:39.873Z,267
2022-10-18T01:24:26.788Z,267
2022-10-18T01:24:59.569Z,267
2022-10-18T01:25:30.899Z,267
2022-10-18T01:26:03.337Z,267
2022-10-18T01:26:34.103Z,267
2022-10-18T01:26:50.512Z,267
2022-10-18T01:27:23.491Z,267
2022-10-18T01:27:40.671Z,267
2022-10-18T01:28:10.780Z,267
2022-10-18T01:28:34.817Z,267
2022-10-18T01:28:58.771Z,267
2022-10-18T01:29:30.651Z,267
2022-10-18T01:30:02.861Z,267
2022-10-18T01:30:34.000Z,267
2022-10-18T01:30:51.486Z,267
2022-10-18T01:31:22.569Z,267
2022-10-18T01:31:39.808Z,267
2022-10-18T01:32:11.238Z,267
2022-10-18T01:32:34.743Z,267
2022-10-18T01:32:58.846Z,267
2022-10-18T01:33:31.448Z,267
2022-10-18T01:34:33.989Z,267
2022-10-18T01:34:51.121Z,267
2022-10-18T01:35:22.916Z,267
2022-10-18T01:35:40.702Z,267
2022-10-18T01:36:10.731Z,267
2022-10-18T01:36:34.127Z,267
2022-10-18T01:36:59.569Z,267
2022-10-18T01:37:31.160Z,267
2022-10-18T01:38:02.636Z,267
2022-10-18T01:38:34.129Z,267
2022-10-18T01:38:50.687Z,267
2022-10-18T01:39:23.396Z,267
2022-10-18T01:39:40.445Z,267
2022-10-18T01:40:10.790Z,267
2022-10-18T01:40:34.042Z,267
2022-10-18T01:40:59.652Z,267
2022-10-18T01:41:30.876Z,267
2022-10-18T01:42:03.370Z,267
2022-10-18T01:42:34.128Z,267
2022-10-18T01:42:50.531Z,267
2022-10-18T01:43:22.753Z,267
2022-10-18T01:43:39.861Z,267
2022-10-18T01:44:11.382Z,267
2022-10-18T01:44:33.991Z,267
2022-10-18T01:44:58.615Z,267
2022-10-18T01:45:30.976Z,267
2022-10-18T01:46:02.783Z,267
2022-10-18T01:46:34.113Z,267
2022-10-18T01:46:50.560Z,267
2022-10-18T01:47:23.746Z,267
2022-10-18T01:47:41.954Z,267
2022-10-18T01:48:10.799Z,267
2022-10-18T01:48:34.019Z,267
2022-10-18T01:48:58.737Z,267
2022-10-18T01:49:31.599Z,267
2022-10-18T01:50:02.919Z,267
2022-10-18T01:50:35.376Z,267
2022-10-18T01:51:07.657Z,267
2022-10-18T01:51:34.825Z,267
2022-10-18T01:51:55.649Z,267
2022-10-18T01:52:26.725Z,267
2022-10-18T01:52:59.390Z,267
2022-10-18T01:53:30.704Z,267
2022-10-18T01:54:03.530Z,267
2022-10-18T01:54:34.024Z,267
2022-10-18T01:54:51.617Z,267
2022-10-18T01:55:22.922Z,267
2022-10-18T01:55:41.663Z,267
2022-10-18T01:56:11.510Z,267
2022-10-18T01:56:34.112Z,267
2022-10-18T01:56:58.757Z,267
2022-10-18T01:57:30.807Z,267
2022-10-18T01:58:02.649Z,267
2022-10-18T01:58:34.163Z,267
2022-10-18T01:58:50.599Z,267
2022-10-18T01:59:24.038Z,267
2022-10-18T01:59:41.438Z,267
2022-10-18T02:00:10.960Z,267
2022-10-18T02:00:33.989Z,267
2022-10-18T02:00:58.893Z,267
2022-10-18T02:01:31.317Z,267
2022-10-18T02:02:02.573Z,267
2022-10-18T02:02:35.483Z,267
2022-10-18T02:03:06.682Z,267
2022-10-18T02:03:34.038Z,267
2022-10-18T02:03:54.854Z,267
2022-10-18T02:04:26.608Z,267
2022-10-18T02:04:59.634Z,267
2022-10-18T02:05:30.974Z,267
2022-10-18T02:06:03.428Z,267
2022-10-18T02:06:34.132Z,267
2022-10-18T02:06:50.505Z,267
2022-10-18T02:07:22.604Z,267
2022-10-18T02:07:39.722Z,267
2022-10-18T02:08:22.752Z,267
2022-10-18T02:08:34.000Z,267
2022-10-18T02:09:08.637Z,267
2022-10-18T02:09:30.830Z,267
2022-10-18T02:10:03.099Z,267
2022-10-18T02:10:37.209Z,267
2022-10-18T02:11:06.764Z,267
2022-10-18T02:11:34.895Z,267
2022-10-18T02:11:54.828Z,267
2022-10-18T02:12:27.091Z,267
2022-10-18T02:12:59.439Z,267
2022-10-18T02:13:32.687Z,267
2022-10-18T02:14:03.937Z,261
2022-10-18T02:14:34.211Z,264
2022-10-18T02:14:50.792Z,264
2022-10-18T02:15:22.912Z,264
2022-10-18T02:15:39.809Z,264
2022-10-18T02:16:11.271Z,264
2022-10-18T02:16:34.015Z,264
2022-10-18T02:16:58.653Z,264
2022-10-18T02:17:30.610Z,264
2022-10-18T02:18:02.786Z,264
2022-10-18T02:18:34.603Z,264
2022-10-18T02:19:06.623Z,264
2022-10-18T02:19:34.283Z,264
2022-10-18T02:19:54.674Z,264
2022-10-18T02:20:27.442Z,264
2022-10-18T02:20:58.768Z,264
2022-10-18T02:21:32.207Z,264
2022-10-18T02:22:02.669Z,264
2022-10-18T02:22:34.913Z,264
2022-10-18T02:23:06.736Z,264
2022-10-18T02:23:34.119Z,264
2022-10-18T02:23:54.616Z,264
2022-10-18T02:24:26.733Z,264
2022-10-18T02:24:59.402Z,264
2022-10-18T02:25:30.693Z,264
2022-10-18T02:26:03.531Z,264
2022-10-18T02:26:33.993Z,249
2022-10-18T02:26:50.607Z,257
2022-10-18T02:27:24.024Z,257
2022-10-18T02:27:41.133Z,257
2022-10-18T02:28:12.533Z,257
2022-10-18T02:28:34.053Z,257
2022-10-18T02:28:58.721Z,265
2022-10-18T02:29:31.459Z,269
2022-10-18T02:30:03.190Z,269
2022-10-18T02:30:34.071Z,269
2022-10-18T02:30:50.816Z,269
2022-10-18T02:31:23.302Z,269
2022-10-18T02:31:41.397Z,269
2022-10-18T02:32:10.564Z,269
2022-10-18T02:32:34.227Z,269
2022-10-18T02:32:58.667Z,269
2022-10-18T02:33:31.309Z,269
2022-10-18T02:34:02.801Z,269
2022-10-18T02:34:34.824Z,269
2022-10-18T02:35:06.870Z,269
2022-10-18T02:35:34.096Z,269
2022-10-18T02:35:55.879Z,269
2022-10-18T02:36:26.644Z,269
2022-10-18T02:36:59.544Z,269
2022-10-18T02:37:32.684Z,269
2022-10-18T02:38:03.553Z,257
2022-10-18T02:38:34.094Z,257
2022-10-18T02:38:50.491Z,257
2022-10-18T02:39:22.950Z,257
2022-10-18T02:39:40.046Z,257
2022-10-18T02:40:11.442Z,257
2022-10-18T02:40:34.169Z,257
2022-10-18T02:40:58.730Z,254
2022-10-18T02:41:30.674Z,255
2022-10-18T02:42:02.697Z,255
2022-10-18T02:42:34.156Z,255
2022-10-18T02:42:51.068Z,255
2022-10-18T02:43:23.420Z,256
2022-10-18T02:43:40.636Z,256
2022-10-18T02:44:10.801Z,256
2022-10-18T02:44:34.150Z,256
2022-10-18T02:44:58.759Z,256
2022-10-18T02:45:32.555Z,256
2022-10-18T02:46:02.680Z,256
2022-10-18T02:46:34.856Z,256
2022-10-18T02:47:06.743Z,291
2022-10-18T02:47:34.239Z,291
2022-10-18T02:47:56.202Z,291
2022-10-18T02:48:26.713Z,291
2022-10-18T02:48:59.294Z,261
2022-10-18T02:49:30.810Z,264
2022-10-18T02:50:03.596Z,264
2022-10-18T02:50:33.993Z,264
2022-10-18T02:50:50.801Z,264
2022-10-18T02:51:22.752Z,264
2022-10-18T02:51:41.189Z,294
2022-10-18T02:52:12.354Z,294
2022-10-18T02:52:34.108Z,294
2022-10-18T02:52:58.709Z,294
2022-10-18T02:53:31.720Z,294
2022-10-18T02:54:02.806Z,295
2022-10-18T02:54:34.206Z,294
2022-10-18T02:54:50.721Z,294
2022-10-18T02:55:23.767Z,294
2022-10-18T02:55:40.703Z,294
2022-10-18T02:56:10.835Z,294
2022-10-18T02:56:34.001Z,295
2022-10-18T02:56:58.574Z,294
2022-10-18T02:57:31.718Z,294
2022-10-18T02:58:02.696Z,294
2022-10-18T02:58:35.884Z,294
2022-10-18T02:59:06.551Z,294
2022-10-18T02:59:35.138Z,294
2022-10-18T02:59:55.562Z,294
2022-10-18T03:00:27.211Z,294
2022-10-18T03:00:59.433Z,294
2022-10-18T03:01:30.754Z,294
2022-10-18T03:02:04.109Z,294
2022-10-18T03:02:34.107Z,294
2022-10-18T03:02:51.505Z,294
2022-10-18T03:03:23.472Z,288
2022-10-18T03:03:40.637Z,289
2022-10-18T03:04:10.744Z,289
2022-10-18T03:04:34.482Z,289
2022-10-18T03:04:58.939Z,289
2022-10-18T03:05:32.638Z,289
2022-10-18T03:06:03.641Z,289
2022-10-18T03:06:38.962Z,289
2022-10-18T03:07:06.977Z,289
2022-10-18T03:07:34.428Z,289
2022-10-18T03:07:55.406Z,288
2022-10-18T03:08:27.015Z,288
2022-10-18T03:08:58.918Z,288
2022-10-18T03:09:30.984Z,288
2022-10-18T03:10:02.682Z,288
2022-10-18T03:10:34.744Z,288
2022-10-18T03:11:07.307Z,288
2022-10-18T03:11:33.963Z,288
2022-10-18T03:11:54.554Z,288
2022-10-18T03:12:28.598Z,288
2022-10-18T03:12:59.550Z,288
2022-10-18T03:13:32.234Z,288
2022-10-18T03:14:02.662Z,288
2022-10-18T03:14:34.909Z,288
2022-10-18T03:15:07.005Z,288
2022-10-18T03:15:34.010Z,288
2022-10-18T03:15:55.233Z,288
2022-10-18T03:16:26.935Z,288
2022-10-18T03:17:00.323Z,288
2022-10-18T03:17:31.193Z,288
2022-10-18T03:18:03.207Z,288
2022-10-18T03:18:34.055Z,288
2022-10-18T03:18:50.467Z,288
2022-10-18T03:19:22.564Z,288
2022-10-18T03:19:39.822Z,288
2022-10-18T03:20:12.075Z,288
2022-10-18T03:20:34.042Z,288
2022-10-18T03:20:58.714Z,288
2022-10-18T03:21:30.606Z,288
2022-10-18T03:22:02.741Z,288
2022-10-18T03:22:33.944Z,288
2022-10-18T03:22:50.446Z,288
2022-10-18T03:23:23.409Z,288
2022-10-18T03:23:40.852Z,288
2022-10-18T03:24:10.699Z,288
2022-10-18T03:24:34.181Z,288
2022-10-18T03:24:58.728Z,288
2022-10-18T03:25:31.561Z,288
2022-10-18T03:26:02.640Z,288
2022-10-18T03:26:35.738Z,288
2022-10-18T03:27:06.757Z,288
2022-10-18T03:27:35.321Z,288
2022-10-18T03:27:55.476Z,288
2022-10-18T03:28:37.602Z,288
2022-10-18T03:29:03.182Z,288
2022-10-18T03:29:31.667Z,288
2022-10-18T03:30:04.491Z,288
2022-10-18T03:30:34.200Z,288
2022-10-18T03:30:57.021Z,288
2022-10-18T03:31:24.193Z,288
2022-10-18T03:31:41.151Z,288
2022-10-18T03:32:10.823Z,288
2022-10-18T03:32:37.751Z,288
2022-10-18T03:32:58.686Z,288
2022-10-18T03:33:30.763Z,288
2022-10-18T03:34:02.920Z,288
2022-10-18T03:34:34.262Z,288
2022-10-18T03:35:06.654Z,288
2022-10-18T03:35:34.120Z,288
2022-10-18T03:35:57.287Z,288
2022-10-18T03:36:26.586Z,288
2022-10-18T03:37:02.117Z,288
2022-10-18T03:37:30.591Z,288
2022-10-18T03:38:03.189Z,288
2022-10-18T03:38:34.034Z,288
2022-10-18T03:38:50.470Z,288
2022-10-18T03:39:22.531Z,288
2022-10-18T03:39:40.824Z,288
2022-10-18T03:40:11.689Z,288
2022-10-18T03:40:34.381Z,288
2022-10-18T03:41:00.653Z,288
2022-10-18T03:41:30.622Z,288
2022-10-18T03:42:02.677Z,288
2022-10-18T03:42:34.473Z,288
2022-10-18T03:42:51.414Z,288
2022-10-18T03:43:23.359Z,288
2022-10-18T03:43:41.072Z,288
2022-10-18T03:44:10.600Z,288
2022-10-18T03:44:34.137Z,288
2022-10-18T03:44:58.721Z,288
2022-10-18T03:45:31.739Z,288
2022-10-18T03:46:02.541Z,288
2022-10-18T03:46:34.980Z,288
2022-10-18T03:47:06.529Z,288
2022-10-18T03:47:34.614Z,288
2022-10-18T03:47:54.547Z,288
2022-10-18T03:48:26.722Z,288
2022-10-18T03:48:59.771Z,288
2022-10-18T03:49:30.577Z,288
2022-10-18T03:50:03.595Z,288
2022-10-18T03:50:34.022Z,288
2022-10-18T03:50:50.770Z,288
2022-10-18T03:51:23.188Z,288
2022-10-18T03:51:40.260Z,288
2022-10-18T03:52:11.506Z,288
2022-10-18T03:52:34.484Z,288
2022-10-18T03:53:15.084Z,288
2022-10-18T03:53:34.090Z,288
2022-10-18T03:54:02.790Z,288
2022-10-18T03:54:34.140Z,288
2022-10-18T03:54:51.570Z,288
2022-10-18T03:55:23.425Z,288
2022-10-18T03:55:40.387Z,288
2022-10-18T03:56:10.498Z,288
2022-10-18T03:56:34.190Z,288
2022-10-18T03:56:58.842Z,288
2022-10-18T03:57:32.181Z,288
2022-10-18T03:58:02.535Z,288
2022-10-18T03:58:35.795Z,288
2022-10-18T03:59:08.064Z,288
2022-10-18T03:59:34.088Z,288
2022-10-18T03:59:55.764Z,288
2022-10-18T04:00:26.701Z,288
2022-10-18T04:01:16.442Z,288
2022-10-18T04:01:34.037Z,288
2022-10-18T04:02:02.813Z,5
2022-10-18T04:02:34.890Z,5
2022-10-18T04:03:06.522Z,5
2022-10-18T04:03:34.917Z,5
2022-10-18T04:03:54.674Z,5
2022-10-18T04:04:34.932Z,5
2022-10-18T04:04:59.336Z,5
2022-10-18T04:05:31.997Z,5
2022-10-18T04:06:03.229Z,5
2022-10-18T04:06:34.011Z,5
2022-10-18T04:06:50.470Z,322
2022-10-18T04:07:23.478Z,300
2022-10-18T04:07:39.623Z,300
2022-10-18T04:08:11.514Z,300
2022-10-18T04:08:34.938Z,272
2022-10-18T04:08:58.712Z,272
2022-10-18T04:09:30.532Z,272
2022-10-18T04:10:03.614Z,272
2022-10-18T04:10:34.305Z,272
2022-10-18T04:11:16.963Z,284
2022-10-18T04:11:40.041Z,284
2022-10-18T04:12:11.663Z,284
2022-10-18T04:12:35.146Z,284
2022-10-18T04:12:58.745Z,284
2022-10-18T04:13:30.533Z,284
2022-10-18T04:14:03.385Z,24
2022-10-18T04:14:34.416Z,14
2022-10-18T04:15:07.686Z,283
2022-10-18T04:15:34.004Z,291
2022-10-18T04:15:54.614Z,300
2022-10-18T04:16:26.622Z,9
2022-10-18T04:16:58.628Z,348
2022-10-18T04:17:31.014Z,345
2022-10-18T04:18:02.551Z,344
2022-10-18T04:18:34.123Z,344
2022-10-18T04:18:50.515Z,344
2022-10-18T04:19:23.236Z,345
2022-10-18T04:19:40.853Z,17
2022-10-18T04:20:12.573Z,14
2022-10-18T04:20:36.833Z,14
2022-10-18T04:20:59.243Z,14
2022-10-18T04:21:32.267Z,14
2022-10-18T04:22:02.696Z,238
2022-10-18T04:22:35.544Z,238
2022-10-18T04:23:06.544Z,240
2022-10-18T04:23:37.892Z,240
2022-10-18T04:23:54.704Z,240
2022-10-18T04:24:27.111Z,329
2022-10-18T04:25:01.090Z,351
2022-10-18T04:25:30.780Z,352
2022-10-18T04:26:03.251Z,14
2022-10-18T04:26:34.166Z,14
2022-10-18T04:27:07.441Z,14
2022-10-18T04:27:34.478Z,15
2022-10-18T04:27:54.703Z,14
2022-10-18T04:28:28.280Z,14
2022-10-18T04:28:58.655Z,14
2022-10-18T04:29:31.519Z,14
2022-10-18T04:30:02.823Z,14
2022-10-18T04:30:36.315Z,14
2022-10-18T04:31:06.551Z,14
2022-10-18T04:31:34.109Z,14
2022-10-18T04:31:54.537Z,19
2022-10-18T04:32:26.594Z,355
2022-10-18T04:32:59.204Z,344
2022-10-18T04:33:30.665Z,293
2022-10-18T04:34:03.372Z,293
2022-10-18T04:34:34.055Z,293
2022-10-18T04:34:50.655Z,340
2022-10-18T04:35:22.734Z,284
2022-10-18T04:35:39.631Z,284
2022-10-18T04:36:12.396Z,285
2022-10-18T04:36:34.168Z,36
2022-10-18T04:37:02.532Z,20
2022-10-18T04:37:30.908Z,350
2022-10-18T04:38:02.487Z,15
2022-10-18T04:38:34.880Z,15
2022-10-18T04:39:06.734Z,15
2022-10-18T04:39:33.955Z,15
2022-10-18T04:39:54.495Z,15
2022-10-18T04:40:26.742Z,15
2022-10-18T04:41:00.273Z,15
2022-10-18T04:41:30.520Z,15
2022-10-18T04:42:03.578Z,15
2022-10-18T04:42:34.028Z,340
2022-10-18T04:42:50.651Z,346
2022-10-18T04:43:22.667Z,5
2022-10-18T04:43:40.606Z,5
2022-10-18T04:44:11.367Z,5
2022-10-18T04:44:34.709Z,338
2022-10-18T04:44:58.694Z,329
2022-10-18T04:45:31.098Z,316
2022-10-18T04:46:02.532Z,345
2022-10-18T04:46:35.298Z,345
2022-10-18T04:47:07.588Z,343
2022-10-18T04:47:34.309Z,338
2022-10-18T04:47:55.978Z,338
2022-10-18T04:48:26.561Z,339
2022-10-18T04:48:59.615Z,346
2022-10-18T04:49:31.540Z,354
2022-10-18T04:50:03.756Z,354
2022-10-18T04:50:35.036Z,355
2022-10-18T04:50:51.819Z,9
2022-10-18T04:51:22.541Z,9
2022-10-18T04:51:39.733Z,9
2022-10-18T04:52:12.175Z,9
2022-10-18T04:52:34.139Z,9
2022-10-18T04:52:58.967Z,8
2022-10-18T04:53:30.596Z,6
2022-10-18T04:54:02.700Z,344
2022-10-18T04:54:33.964Z,6
2022-10-18T04:54:51.550Z,6
2022-10-18T04:55:23.490Z,339
2022-10-18T04:55:40.614Z,331
2022-10-18T04:56:10.616Z,353
2022-10-18T04:56:34.187Z,338
2022-10-18T04:56:58.657Z,347
2022-10-18T04:57:31.537Z,6
2022-10-18T04:58:02.503Z,6
2022-10-18T04:58:35.755Z,5
2022-10-18T04:59:06.781Z,317
2022-10-18T04:59:33.993Z,355
2022-10-18T04:59:54.523Z,341
2022-10-18T05:00:26.848Z,353
2022-10-18T05:00:59.679Z,11
2022-10-18T05:01:31.505Z,358
2022-10-18T05:02:34.575Z,3
2022-10-18T05:02:51.024Z,21
2022-10-18T05:03:22.644Z,330
2022-10-18T05:03:39.757Z,338
2022-10-18T05:04:12.538Z,352
2022-10-18T05:04:33.961Z,51
2022-10-18T05:05:00.453Z,342
2022-10-18T05:05:49.849Z,9
2022-10-18T05:06:03.348Z,3
2022-10-18T05:06:34.155Z,344
2022-10-18T05:06:51.550Z,357
2022-10-18T05:07:23.359Z,350
2022-10-18T05:07:40.394Z,8
2022-10-18T05:08:10.636Z,16
2022-10-18T05:08:33.951Z,16
2022-10-18T05:08:58.559Z,341
2022-10-18T05:09:47.042Z,12
2022-10-18T05:10:18.832Z,350
2022-10-18T05:10:36.612Z,346
2022-10-18T05:11:07.601Z,13
2022-10-18T05:11:34.162Z,348
2022-10-18T05:11:54.572Z,352
2022-10-18T05:12:26.787Z,342
2022-10-18T05:12:58.755Z,355
2022-10-18T05:13:31.250Z,1
2022-10-18T05:14:03.628Z,12
2022-10-18T05:14:33.971Z,23
2022-10-18T05:14:50.622Z,11
2022-10-18T05:15:23.487Z,11
2022-10-18T05:15:40.388Z,11
2022-10-18T05:16:10.475Z,349
2022-10-18T05:16:34.116Z,22
2022-10-18T05:16:59.423Z,342
2022-10-18T05:17:31.421Z,16
2022-10-18T05:18:02.563Z,334
2022-10-18T05:18:35.307Z,332
2022-10-18T05:19:06.703Z,22
2022-10-18T05:19:35.576Z,21
2022-10-18T05:19:54.512Z,345
2022-10-18T05:20:26.624Z,350
2022-10-18T05:21:01.532Z,326
2022-10-18T05:21:31.422Z,327
2022-10-18T05:22:03.278Z,327
2022-10-18T05:22:35.430Z,327
2022-10-18T05:22:50.438Z,327
2022-10-18T05:23:22.808Z,331
2022-10-18T05:23:43.237Z,331
2022-10-18T05:24:11.200Z,331
2022-10-18T05:24:34.060Z,331
2022-10-18T05:24:58.493Z,331
2022-10-18T05:25:30.744Z,331
2022-10-18T05:26:02.506Z,331
2022-10-18T05:26:34.249Z,331
2022-10-18T05:26:50.633Z,332
2022-10-18T05:27:23.474Z,330
2022-10-18T05:27:40.476Z,331
2022-10-18T05:28:11.055Z,330
2022-10-18T05:28:39.522Z,330
2022-10-18T05:28:58.685Z,331
2022-10-18T05:29:31.168Z,331
2022-10-18T05:30:05.455Z,331
2022-10-18T05:30:35.685Z,331
2022-10-18T05:31:06.568Z,331
2022-10-18T05:31:34.156Z,58
2022-10-18T05:31:54.644Z,28
2022-10-18T05:32:26.569Z,324
2022-10-18T05:32:59.854Z,327
2022-10-18T05:33:30.697Z,324
2022-10-18T05:34:02.674Z,324
2022-10-18T05:34:34.146Z,324
2022-10-18T05:34:50.486Z,324
2022-10-18T05:35:24.772Z,324
2022-10-18T05:35:41.356Z,324
2022-10-18T05:36:10.696Z,324
2022-10-18T05:36:33.966Z,324
2022-10-18T05:36:58.543Z,324
2022-10-18T05:37:31.191Z,324
2022-10-18T05:38:02.644Z,324
2022-10-18T05:38:38.622Z,324
2022-10-18T05:39:06.555Z,324
2022-10-18T05:39:35.021Z,324
2022-10-18T05:39:54.651Z,324
2022-10-18T05:40:26.836Z,324
2022-10-18T05:40:59.160Z,324
2022-10-18T05:41:30.492Z,324
2022-10-18T05:42:03.302Z,324
2022-10-18T05:42:34.310Z,324
2022-10-18T05:42:50.600Z,324
2022-10-18T05:43:22.534Z,324
2022-10-18T05:43:39.593Z,324
2022-10-18T05:44:28.029Z,324
2022-10-18T05:44:58.721Z,324
2022-10-18T05:45:31.591Z,324
2022-10-18T05:46:02.477Z,324
2022-10-18T05:46:34.846Z,324
2022-10-18T05:47:07.361Z,324
2022-10-18T05:47:55.200Z,324
2022-10-18T05:48:26.540Z,324
2022-10-18T05:49:00.491Z,324
2022-10-18T05:49:30.732Z,324
2022-10-18T05:50:03.435Z,324
2022-10-18T05:50:36.726Z,324
2022-10-18T05:50:50.654Z,324
2022-10-18T05:51:22.683Z,324
2022-10-18T05:51:39.765Z,324
2022-10-18T05:52:11.358Z,324
2022-10-18T05:52:34.382Z,324
2022-10-18T05:53:06.953Z,324
2022-10-18T05:53:37.389Z,324
2022-10-18T05:54:02.488Z,324
2022-10-18T05:54:34.141Z,324
2022-10-18T05:54:50.504Z,324
2022-10-18T05:55:23.594Z,324
2022-10-18T05:55:41.273Z,324
2022-10-18T05:56:10.518Z,324
2022-10-18T05:56:34.597Z,324
2022-10-18T05:56:58.595Z,324
2022-10-18T05:57:31.787Z,52
2022-10-18T05:58:02.485Z,43
2022-10-18T05:58:35.163Z,42
2022-10-18T05:59:06.527Z,42
2022-10-18T05:59:36.009Z,42
2022-10-18T05:59:54.666Z,42
2022-10-18T06:00:26.685Z,42
2022-10-18T06:00:59.369Z,42
2022-10-18T06:01:31.195Z,42
2022-10-18T06:02:03.531Z,42
2022-10-18T06:02:34.267Z,42
2022-10-18T06:02:50.623Z,42
2022-10-18T06:03:22.501Z,42
2022-10-18T06:03:44.596Z,42
2022-10-18T06:04:12.181Z,42
2022-10-18T06:04:34.904Z,42
2022-10-18T06:04:58.636Z,42
2022-10-18T06:05:30.644Z,42
2022-10-18T06:06:02.667Z,42
2022-10-18T06:06:33.981Z,42
2022-10-18T06:06:50.648Z,42
2022-10-18T06:07:23.316Z,28
2022-10-18T06:07:40.440Z,28
2022-10-18T06:08:10.573Z,28
2022-10-18T06:08:34.151Z,28
2022-10-18T06:09:00.459Z,28
2022-10-18T06:09:31.312Z,28
2022-10-18T06:10:02.678Z,28
2022-10-18T06:10:34.882Z,28
2022-10-18T06:11:06.634Z,28
2022-10-18T06:11:34.245Z,28
2022-10-18T06:11:55.435Z,28
2022-10-18T06:12:27.569Z,28
2022-10-18T06:12:59.609Z,28
2022-10-18T06:13:32.427Z,28
2022-10-18T06:14:03.287Z,28
2022-10-18T06:14:34.137Z,28
2022-10-18T06:14:50.665Z,28
2022-10-18T06:15:22.949Z,28
2022-10-18T06:15:39.756Z,28
2022-10-18T06:16:11.277Z,28
2022-10-18T06:16:34.145Z,28
2022-10-18T06:16:58.684Z,28
2022-10-18T06:17:32.610Z,28
2022-10-18T06:18:02.591Z,28
2022-10-18T06:18:34.170Z,28
2022-10-18T06:18:50.600Z,28
2022-10-18T06:19:23.293Z,28
2022-10-18T06:19:40.351Z,28
2022-10-18T06:20:10.696Z,28
2022-10-18T06:20:34.055Z,28
2022-10-18T06:20:58.820Z,28
2022-10-18T06:21:31.211Z,28
2022-10-18T06:22:02.674Z,28
2022-10-18T06:22:35.655Z,28
2022-10-18T06:23:06.852Z,28
2022-10-18T06:23:33.977Z,28
2022-10-18T06:23:54.565Z,28
2022-10-18T06:24:26.615Z,21
2022-10-18T06:24:59.275Z,355
2022-10-18T06:25:30.825Z,355
2022-10-18T06:26:02.680Z,355
2022-10-18T06:26:34.202Z,355
2022-10-18T06:26:50.612Z,355
2022-10-18T06:27:23.268Z,355
2022-10-18T06:27:40.694Z,355
2022-10-18T06:28:12.179Z,3
2022-10-18T06:28:35.926Z,3
2022-10-18T06:28:58.736Z,9
2022-10-18T06:29:31.637Z,10